createdAt,value
2019-01-30T00:00:48.775Z,94.37
2019-01-30T00:03:17.519Z,88.63
2019-01-30T00:05:46.115Z,87.53
2019-01-30T00:08:14.729Z,93.50
2019-01-30T00:10:43.294Z,92.70
2019-01-30T00:13:11.923Z,55.27
2019-01-30T00:15:43.136Z,82.70
2019-01-30T00:18:11.767Z,22.73
2019-01-30T00:20:40.396Z,18.17
2019-01-30T00:23:09.945Z,18.67
2019-01-30T00:25:38.586Z,18.10
2019-01-30T00:28:07.154Z,21.30
2019-01-30T00:30:35.765Z,19.07
2019-01-30T00:33:04.679Z,20.13
2019-01-30T00:35:33.243Z,19.07
2019-01-30T00:38:01.926Z,20.07
2019-01-30T00:40:30.491Z,20.00
2019-01-30T00:42:59.445Z,21.80
2019-01-30T00:45:28.116Z,20.73
2019-01-30T00:47:56.675Z,19.50
2019-01-30T00:50:25.241Z,21.13
2019-01-30T00:52:53.827Z,20.00
2019-01-30T00:55:22.811Z,21.80
2019-01-30T00:57:51.383Z,20.40
2019-01-30T01:00:25.905Z,21.13
2019-01-30T01:02:54.464Z,21.77
2019-01-30T01:05:23.035Z,20.70
2019-01-30T01:17:36.322Z,21.67
2019-01-30T01:20:08.131Z,21.70
2019-01-30T01:22:36.754Z,21.53
2019-01-30T01:25:08.531Z,21.60
2019-01-30T01:27:37.027Z,22.67
2019-01-30T01:30:24.565Z,21.93
2019-01-30T01:32:46.878Z,22.60
2019-01-30T01:35:15.570Z,23.07
2019-01-30T01:37:44.290Z,22.20
2019-01-30T01:40:16.713Z,22.80
2019-01-30T01:42:45.347Z,21.30
2019-01-30T01:45:16.319Z,22.47
2019-01-30T01:47:45.246Z,23.77
2019-01-30T01:50:15.582Z,23.23
2019-01-30T01:52:44.255Z,23.40
2019-01-30T01:55:13.130Z,21.80
2019-01-30T01:57:41.696Z,22.73
2019-01-30T02:00:21.231Z,22.63
2019-01-30T02:02:49.868Z,24.73
2019-01-30T02:05:20.407Z,21.53
2019-01-30T02:07:49.079Z,23.10
2019-01-30T02:10:19.421Z,22.07
2019-01-30T02:12:48.049Z,20.13
2019-01-30T02:15:18.626Z,21.00
2019-01-30T02:17:47.199Z,21.07
2019-01-30T02:20:17.931Z,19.83
2019-01-30T02:22:46.649Z,20.33
2019-01-30T02:25:16.181Z,20.57
2019-01-30T02:27:44.737Z,18.53
2019-01-30T02:30:28.114Z,19.40
2019-01-30T02:32:56.613Z,17.90
2019-01-30T02:35:25.246Z,19.03
2019-01-30T02:37:53.848Z,16.83
2019-01-30T02:40:23.786Z,15.93
2019-01-30T02:42:52.280Z,18.47
2019-01-30T02:45:23.263Z,60.27
2019-01-30T02:47:51.906Z,34.03
2019-01-30T02:50:20.735Z,24.67
2019-01-30T02:52:49.407Z,55.13
2019-01-30T02:55:18.976Z,82.20
2019-01-30T02:57:47.470Z,90.20
2019-01-30T03:00:19.277Z,91.70
2019-01-30T03:02:47.905Z,88.30
2019-01-30T03:05:16.407Z,41.63
2019-01-30T03:07:45.000Z,20.77
2019-01-30T03:10:20.438Z,30.93
2019-01-30T03:12:49.055Z,21.00
2019-01-30T03:15:18.406Z,19.73
2019-01-30T03:17:47.414Z,20.30
2019-01-30T03:20:21.330Z,20.77
2019-01-30T03:22:49.902Z,20.90
2019-01-30T03:25:20.353Z,20.03
2019-01-30T03:27:49.015Z,20.87
2019-01-30T03:30:19.592Z,20.50
2019-01-30T03:32:48.324Z,19.17
2019-01-30T03:35:16.894Z,17.53
2019-01-30T03:37:45.378Z,18.10
2019-01-30T03:40:16.146Z,16.47
2019-01-30T03:42:44.761Z,15.87
2019-01-30T03:45:15.622Z,15.50
2019-01-30T03:47:44.193Z,15.47
2019-01-30T03:50:14.068Z,15.93
2019-01-30T03:52:42.566Z,16.40
2019-01-30T03:55:13.332Z,15.73
2019-01-30T03:57:41.858Z,14.40
2019-01-30T04:00:15.769Z,15.13
2019-01-30T04:02:44.256Z,15.60
2019-01-30T04:05:12.864Z,15.90
2019-01-30T04:07:41.418Z,15.80
2019-01-30T04:10:19.287Z,15.67
2019-01-30T04:12:47.853Z,14.27
2019-01-30T04:15:16.421Z,14.87
2019-01-30T04:17:45.022Z,14.73
2019-01-30T04:20:15.915Z,15.70
2019-01-30T04:22:44.422Z,15.07
2019-01-30T04:25:13.339Z,15.47
2019-01-30T04:27:42.237Z,17.90
2019-01-30T04:30:22.650Z,17.33
2019-01-30T04:32:51.144Z,19.77
2019-01-30T04:35:19.711Z,24.60
2019-01-30T04:38:07.741Z,21.80
2019-01-30T04:40:36.334Z,28.67
2019-01-30T04:43:04.899Z,33.10
2019-01-30T04:45:33.515Z,73.20
2019-01-30T04:48:02.188Z,17.87
2019-01-30T04:50:30.711Z,18.13
2019-01-30T04:52:59.303Z,17.63
2019-01-30T04:55:27.870Z,30.70
2019-01-30T04:57:58.222Z,18.20
2019-01-30T05:00:26.624Z,19.80
2019-01-30T05:02:55.114Z,20.67
2019-01-30T05:05:23.684Z,22.73
2019-01-30T05:07:52.312Z,23.10
2019-01-30T05:10:20.802Z,23.97
2019-01-30T05:12:49.300Z,23.57
2019-01-30T05:15:19.526Z,25.33
2019-01-30T05:17:48.072Z,29.20
2019-01-30T05:20:18.551Z,28.93
2019-01-30T05:22:47.078Z,26.67
2019-01-30T05:25:15.654Z,26.10
2019-01-30T05:27:45.172Z,24.00
2019-01-30T05:30:22.194Z,22.77
2019-01-30T05:32:50.685Z,21.57
2019-01-30T05:35:19.176Z,23.90
2019-01-30T05:37:50.852Z,22.67
2019-01-30T05:40:19.466Z,22.60
2019-01-30T05:42:48.032Z,25.23
2019-01-30T05:45:17.714Z,25.27
2019-01-30T05:47:46.287Z,27.77
2019-01-30T05:50:15.404Z,26.27
2019-01-30T05:52:43.988Z,24.70
2019-01-30T05:55:14.225Z,23.20
2019-01-30T05:57:42.793Z,23.47
2019-01-30T06:00:20.156Z,27.40
2019-01-30T06:02:48.647Z,24.43
2019-01-30T06:05:17.283Z,23.87
2019-01-30T06:07:46.013Z,23.80
2019-01-30T06:10:14.648Z,24.87
2019-01-30T06:12:43.715Z,22.80
2019-01-30T06:15:15.181Z,28.13
2019-01-30T06:17:43.813Z,24.27
2019-01-30T06:20:15.382Z,23.27
2019-01-30T06:22:43.997Z,79.97
2019-01-30T06:25:12.638Z,93.67
2019-01-30T06:27:41.274Z,68.77
2019-01-30T06:30:13.803Z,62.43
2019-01-30T06:32:42.419Z,25.50
2019-01-30T06:35:11.061Z,26.57
2019-01-30T06:37:39.686Z,40.23
2019-01-30T06:40:26.399Z,29.93
2019-01-30T06:42:55.069Z,53.47
2019-01-30T06:45:24.096Z,30.57
2019-01-30T06:47:52.664Z,32.43
2019-01-30T06:50:21.336Z,27.20
2019-01-30T06:52:50.344Z,26.97
2019-01-30T06:55:18.996Z,25.13
2019-01-30T06:57:47.665Z,24.63
2019-01-30T07:00:24.913Z,23.93
2019-01-30T07:02:54.040Z,21.90
2019-01-30T07:05:22.604Z,21.77
2019-01-30T07:07:51.242Z,20.10
2019-01-30T07:10:25.409Z,18.87
2019-01-30T07:12:53.974Z,18.57
2019-01-30T07:15:22.815Z,16.43
2019-01-30T07:17:51.425Z,16.97
2019-01-30T07:20:19.925Z,18.40
2019-01-30T07:22:48.478Z,15.80
2019-01-30T07:25:19.252Z,18.13
2019-01-30T07:27:47.879Z,16.60
2019-01-30T07:30:22.214Z,15.20
2019-01-30T07:32:50.841Z,15.33
2019-01-30T07:35:19.346Z,16.50
2019-01-30T07:37:48.030Z,17.20
2019-01-30T07:40:16.859Z,17.13
2019-01-30T07:42:45.416Z,17.47
2019-01-30T07:55:40.315Z,21.20
2019-01-30T07:58:08.947Z,20.07
2019-01-30T08:00:37.579Z,21.73
2019-01-30T08:03:06.243Z,22.27
2019-01-30T08:05:34.878Z,22.43
2019-01-30T08:08:03.778Z,21.50
2019-01-30T08:10:32.451Z,21.30
2019-01-30T08:13:01.095Z,22.33
2019-01-30T08:15:29.617Z,23.17
2019-01-30T08:17:58.212Z,23.43
2019-01-30T08:20:26.842Z,23.83
2019-01-30T08:22:55.460Z,22.27
2019-01-30T08:25:24.031Z,20.53
2019-01-30T08:27:52.868Z,21.27
2019-01-30T08:30:24.182Z,21.23
2019-01-30T08:33:03.757Z,21.13
2019-01-30T08:35:25.922Z,20.83
2019-01-30T08:37:54.505Z,21.90
2019-01-30T08:40:23.173Z,20.37
2019-01-30T08:42:52.232Z,20.50
2019-01-30T08:45:28.909Z,23.57
2019-01-30T08:47:57.534Z,20.57
2019-01-30T08:50:26.522Z,20.53
2019-01-30T08:52:55.130Z,22.93
2019-01-30T08:55:23.649Z,21.70
2019-01-30T08:57:52.211Z,22.07
2019-01-30T09:00:28.416Z,21.57
2019-01-30T09:02:56.994Z,22.70
2019-01-30T09:05:25.690Z,22.67
2019-01-30T09:07:54.647Z,23.17
2019-01-30T09:10:25.749Z,22.10
2019-01-30T09:12:54.324Z,22.20
2019-01-30T09:15:27.861Z,22.13
2019-01-30T09:17:56.430Z,23.13
2019-01-30T09:20:27.849Z,22.20
2019-01-30T09:22:56.471Z,20.60
2019-01-30T09:25:30.284Z,21.93
2019-01-30T09:28:00.705Z,22.10
2019-01-30T09:30:31.575Z,20.67
2019-01-30T09:33:00.078Z,19.17
2019-01-30T09:35:29.796Z,19.73
2019-01-30T09:37:58.433Z,18.73
2019-01-30T09:40:27.029Z,16.80
2019-01-30T09:42:55.679Z,15.30
2019-01-30T09:45:24.537Z,15.13
2019-01-30T09:47:53.108Z,16.23
2019-01-30T09:50:23.418Z,16.27
2019-01-30T09:52:52.386Z,15.30
2019-01-30T09:55:23.346Z,17.23
2019-01-30T09:57:52.026Z,15.03
2019-01-30T10:00:23.812Z,14.97
2019-01-30T10:02:52.306Z,15.60
2019-01-30T10:05:20.997Z,17.33
2019-01-30T10:07:49.484Z,15.83
2019-01-30T10:10:32.534Z,15.10
2019-01-30T10:13:01.174Z,13.43
2019-01-30T10:15:34.982Z,12.23
2019-01-30T10:18:03.949Z,10.63
2019-01-30T10:20:33.726Z,9.67
2019-01-30T10:23:02.231Z,9.53
2019-01-30T10:25:30.832Z,9.60
2019-01-30T10:27:59.331Z,9.23
2019-01-30T10:30:33.465Z,10.40
2019-01-30T10:33:02.070Z,10.97
2019-01-30T10:35:30.576Z,9.67
2019-01-30T10:37:59.915Z,7.70
2019-01-30T10:40:28.469Z,7.20
2019-01-30T10:42:57.561Z,8.87
2019-01-30T10:45:26.200Z,9.43
2019-01-30T10:47:54.791Z,9.77
2019-01-30T10:50:28.537Z,9.30
2019-01-30T10:52:57.101Z,9.73
2019-01-30T10:55:27.581Z,10.80
2019-01-30T10:57:57.815Z,8.97
2019-01-30T11:00:34.355Z,9.47
2019-01-30T11:03:02.844Z,8.13
2019-01-30T11:05:31.481Z,11.33
2019-01-30T11:08:00.089Z,7.83
2019-01-30T11:10:28.643Z,9.70
2019-01-30T11:12:57.212Z,8.43
2019-01-30T11:15:28.136Z,9.67
2019-01-30T11:17:57.164Z,9.70
2019-01-30T11:20:25.738Z,9.87
2019-01-30T11:22:54.276Z,8.40
2019-01-30T11:25:31.644Z,9.43
2019-01-30T11:28:00.321Z,9.27
2019-01-30T11:30:28.806Z,8.17
2019-01-30T11:32:57.435Z,6.87
2019-01-30T11:35:26.120Z,7.40
2019-01-30T11:37:54.679Z,8.00
2019-01-30T11:40:24.996Z,6.40
2019-01-30T11:42:54.026Z,7.73
2019-01-30T11:45:34.225Z,7.50
2019-01-30T11:48:02.874Z,7.00
2019-01-30T11:50:31.507Z,8.80
2019-01-30T11:53:00.235Z,8.10
2019-01-30T11:55:28.918Z,8.77
2019-01-30T11:57:57.560Z,10.13
2019-01-30T12:00:39.258Z,8.90
2019-01-30T12:03:07.880Z,7.87
2019-01-30T12:05:36.440Z,8.43
2019-01-30T12:08:05.322Z,7.73
2019-01-30T12:10:33.885Z,6.67
2019-01-30T12:13:02.521Z,8.17
2019-01-30T12:15:31.195Z,9.40
2019-01-30T12:17:59.828Z,7.70
2019-01-30T12:20:28.466Z,8.23
2019-01-30T12:22:57.149Z,9.70
2019-01-30T12:25:25.783Z,8.30
2019-01-30T12:27:54.415Z,9.43
2019-01-30T12:30:29.796Z,9.67
2019-01-30T12:32:58.363Z,9.00
2019-01-30T12:35:26.930Z,10.03
2019-01-30T12:37:55.616Z,8.43
2019-01-30T12:40:24.961Z,10.43
2019-01-30T12:42:53.509Z,8.83
2019-01-30T12:45:36.336Z,10.40
2019-01-30T12:48:05.651Z,9.83
2019-01-30T12:50:34.147Z,10.17
2019-01-30T12:53:02.819Z,9.23
2019-01-30T12:55:31.566Z,9.67
2019-01-30T12:58:00.201Z,9.93
2019-01-30T13:00:34.623Z,11.67
2019-01-30T13:03:03.163Z,10.93
2019-01-30T13:05:31.816Z,11.53
2019-01-30T13:08:00.424Z,11.60
2019-01-30T13:10:29.054Z,9.83
2019-01-30T13:12:57.550Z,10.53
2019-01-30T13:15:28.243Z,11.50
2019-01-30T13:17:56.878Z,11.13
2019-01-30T13:20:28.563Z,10.00
2019-01-30T13:22:57.093Z,10.03
2019-01-30T13:25:27.932Z,11.63
2019-01-30T13:27:56.494Z,12.57
2019-01-30T13:30:33.291Z,9.03
2019-01-30T13:33:02.030Z,8.33
2019-01-30T13:35:30.587Z,20.30
2019-01-30T13:37:59.206Z,23.03
2019-01-30T13:40:30.966Z,10.50
2019-01-30T13:42:59.652Z,12.37
2019-01-30T13:45:29.946Z,11.27
2019-01-30T13:47:58.596Z,13.60
2019-01-30T13:50:28.254Z,12.47
2019-01-30T13:52:56.842Z,12.07
2019-01-30T13:55:25.562Z,10.40
2019-01-30T13:57:54.130Z,11.03
2019-01-30T14:00:24.928Z,10.13
2019-01-30T14:02:53.580Z,10.00
2019-01-30T14:05:22.194Z,13.80
2019-01-30T14:07:51.205Z,11.30
2019-01-30T14:10:19.740Z,10.00
2019-01-30T14:12:48.304Z,10.17
2019-01-30T14:15:19.097Z,13.77
2019-01-30T14:20:39.268Z,12.27
2019-01-30T14:23:07.917Z,13.17
2019-01-30T14:25:36.493Z,13.70
2019-01-30T14:28:05.593Z,14.00
2019-01-30T14:30:35.910Z,12.83
2019-01-30T14:33:04.477Z,13.53
2019-01-30T14:35:34.357Z,15.73
2019-01-30T14:38:02.967Z,16.00
2019-01-30T14:40:31.536Z,13.40
2019-01-30T14:43:00.193Z,15.20
2019-01-30T14:45:28.797Z,16.13
2019-01-30T14:47:58.209Z,15.83
2019-01-30T14:50:28.032Z,12.93
2019-01-30T14:52:56.736Z,16.17
2019-01-30T14:55:25.188Z,17.83
2019-01-30T14:57:54.397Z,15.57
2019-01-30T15:00:29.030Z,16.30
2019-01-30T15:02:57.600Z,17.07
2019-01-30T15:05:26.324Z,17.40
2019-01-30T15:07:54.775Z,17.07
2019-01-30T15:10:25.192Z,19.97
2019-01-30T15:12:53.918Z,22.37
2019-01-30T15:15:24.785Z,25.33
2019-01-30T15:17:53.872Z,27.07
2019-01-30T15:20:24.541Z,25.00
2019-01-30T15:22:53.025Z,46.73
2019-01-30T15:25:23.009Z,55.23
2019-01-30T15:27:52.099Z,86.83
2019-01-30T15:30:23.803Z,95.30
2019-01-30T15:32:52.413Z,96.20
2019-01-30T15:35:33.200Z,94.87
2019-01-30T15:37:54.138Z,20.47
2019-01-30T15:40:27.617Z,21.07
2019-01-30T15:42:56.174Z,19.03
2019-01-30T15:45:25.358Z,23.13
2019-01-30T15:47:53.885Z,21.77
2019-01-30T15:50:33.918Z,23.03
2019-01-30T15:53:02.685Z,21.10
2019-01-30T15:55:31.248Z,20.10
2019-01-30T15:58:05.836Z,20.60
2019-01-30T16:00:52.753Z,21.43
2019-01-30T16:03:21.248Z,54.40
2019-01-30T16:05:49.880Z,20.37
2019-01-30T16:08:18.495Z,21.10
2019-01-30T16:10:47.415Z,27.73
2019-01-30T16:13:16.407Z,21.83
2019-01-30T16:15:59.515Z,21.73
2019-01-30T16:18:28.162Z,20.80
2019-01-30T16:20:56.728Z,24.57
2019-01-30T16:23:25.334Z,23.20
2019-01-30T16:25:53.914Z,26.07
2019-01-30T16:28:22.578Z,24.20
2019-01-30T16:30:51.605Z,23.00
2019-01-30T16:33:20.257Z,22.93
2019-01-30T16:35:55.671Z,23.60
2019-01-30T16:38:19.138Z,23.47
2019-01-30T16:40:47.800Z,23.13
2019-01-30T16:43:16.370Z,23.27
2019-01-30T16:45:45.046Z,21.97
2019-01-30T16:48:13.614Z,24.63
2019-01-30T16:50:42.183Z,23.77
2019-01-30T16:53:10.872Z,26.17
2019-01-30T16:55:39.433Z,26.27
2019-01-30T16:58:08.175Z,24.97
2019-01-30T17:00:37.995Z,27.07
2019-01-30T17:03:08.725Z,30.90
2019-01-30T17:05:37.358Z,27.97
2019-01-30T17:08:06.648Z,26.50
2019-01-30T17:10:35.267Z,26.70
2019-01-30T17:13:03.919Z,24.90
2019-01-30T17:15:38.209Z,26.23
2019-01-30T17:18:07.750Z,25.13
2019-01-30T17:20:38.396Z,31.50
2019-01-30T17:23:06.984Z,34.23
2019-01-30T17:25:35.553Z,31.33
2019-01-30T17:28:04.490Z,25.87
2019-01-30T17:30:42.048Z,27.40
2019-01-30T17:33:11.474Z,27.00
2019-01-30T17:35:40.919Z,28.10
2019-01-30T17:38:11.338Z,27.37
2019-01-30T17:40:40.064Z,25.43
2019-01-30T17:43:08.619Z,25.63
2019-01-30T17:45:37.296Z,27.93
2019-01-30T17:48:06.263Z,29.67
2019-01-30T17:50:34.901Z,28.37
2019-01-30T17:53:03.575Z,29.10
2019-01-30T17:55:32.237Z,31.87
2019-01-30T17:58:00.876Z,30.83
2019-01-30T18:00:36.579Z,30.57
2019-01-30T18:03:05.159Z,28.87
2019-01-30T18:05:33.794Z,29.13
2019-01-30T18:08:02.475Z,27.63
2019-01-30T18:10:31.107Z,27.40
2019-01-30T18:12:59.753Z,28.73
2019-01-30T18:15:28.432Z,33.20
2019-01-30T18:17:57.000Z,33.37
2019-01-30T18:20:25.641Z,29.83
2019-01-30T18:22:54.759Z,31.33
2019-01-30T18:25:23.405Z,28.63
2019-01-30T18:27:52.367Z,29.37
2019-01-30T18:30:23.303Z,31.47
2019-01-30T18:32:51.944Z,30.47
2019-01-30T18:35:20.604Z,29.17
2019-01-30T18:37:49.212Z,29.93
2019-01-30T18:40:20.059Z,29.30
2019-01-30T18:42:49.035Z,33.33
2019-01-30T18:45:20.900Z,31.00
2019-01-30T18:47:49.546Z,31.30
2019-01-30T18:50:20.841Z,30.47
2019-01-30T18:52:49.441Z,30.43
2019-01-30T18:55:18.977Z,31.27
2019-01-30T18:57:48.769Z,32.53
2019-01-30T19:00:23.146Z,34.97
2019-01-30T19:02:55.819Z,34.57
2019-01-30T19:05:23.633Z,35.60
2019-01-30T19:07:52.718Z,34.90
2019-01-30T19:10:21.750Z,34.67
2019-01-30T19:12:50.383Z,35.33
2019-01-30T19:15:25.423Z,35.70
2019-01-30T19:17:54.047Z,33.13
2019-01-30T19:20:25.818Z,34.13
2019-01-30T19:22:55.098Z,36.90
2019-01-30T19:25:23.761Z,38.20
2019-01-30T19:27:52.399Z,37.27
2019-01-30T19:30:24.224Z,42.10
2019-01-30T19:32:52.903Z,43.53
2019-01-30T19:35:21.453Z,45.93
2019-01-30T19:37:50.100Z,38.67
2019-01-30T19:40:18.687Z,43.83
2019-01-30T19:42:47.337Z,46.97
2019-01-30T19:45:18.241Z,44.13
2019-01-30T19:47:47.293Z,47.47
2019-01-30T19:50:18.695Z,43.63
2019-01-30T19:52:47.393Z,44.17
2019-01-30T19:55:17.100Z,43.03
2019-01-30T19:57:46.738Z,42.23
2019-01-30T20:00:29.484Z,44.87
2019-01-30T20:02:58.744Z,44.50
2019-01-30T20:05:27.398Z,42.53
2019-01-30T20:07:57.985Z,44.00
2019-01-30T20:10:32.070Z,45.60
2019-01-30T20:13:00.722Z,46.10
2019-01-30T20:15:29.863Z,45.80
2019-01-30T20:17:58.529Z,52.43
2019-01-30T20:20:27.192Z,54.60
2019-01-30T20:22:55.876Z,56.73
2019-01-30T20:25:27.389Z,57.67
2019-01-30T20:27:56.034Z,58.67
2019-01-30T20:30:25.509Z,55.43
2019-01-30T20:32:54.573Z,58.30
2019-01-30T20:35:23.210Z,57.00
2019-01-30T20:37:51.846Z,54.70
2019-01-30T20:40:22.441Z,54.23
2019-01-30T20:42:52.843Z,52.40
2019-01-30T20:45:33.627Z,49.97
2019-01-30T20:47:53.733Z,51.17
2019-01-30T20:50:24.585Z,48.70
2019-01-30T20:52:53.286Z,50.23
2019-01-30T20:55:21.927Z,50.40
2019-01-30T20:57:52.127Z,48.17
2019-01-30T21:00:35.526Z,51.67
2019-01-30T21:03:05.241Z,51.87
2019-01-30T21:05:34.452Z,48.40
2019-01-30T21:08:03.159Z,113.63
2019-01-30T21:10:34.672Z,109.00
2019-01-30T21:13:03.334Z,87.17
2019-01-30T21:15:33.500Z,81.73
2019-01-30T21:18:02.132Z,120.50
2019-01-30T21:20:30.726Z,85.10
2019-01-30T21:22:59.360Z,43.13
2019-01-30T21:25:27.946Z,51.80
2019-01-30T21:27:56.510Z,46.10
2019-01-30T21:30:27.861Z,49.93
2019-01-30T21:32:56.443Z,44.87
2019-01-30T21:35:25.084Z,44.67
2019-01-30T21:37:53.760Z,51.97
2019-01-30T21:40:22.409Z,67.43
2019-01-30T21:42:50.978Z,123.33
2019-01-30T21:45:23.725Z,116.27
2019-01-30T21:47:52.363Z,115.23
2019-01-30T21:50:21.112Z,118.03
2019-01-30T21:52:49.824Z,72.03
2019-01-30T21:55:23.404Z,45.77
2019-01-30T21:57:51.987Z,44.13
2019-01-30T22:00:28.880Z,53.17
2019-01-30T22:02:57.525Z,55.70
2019-01-30T22:05:26.589Z,44.30
2019-01-30T22:08:01.091Z,46.53
2019-01-30T22:10:27.263Z,45.87
2019-01-30T22:12:55.923Z,45.93
2019-01-30T22:15:26.417Z,50.90
2019-01-30T22:17:54.922Z,48.33
2019-01-30T22:20:25.923Z,47.70
2019-01-30T22:22:54.795Z,47.53
2019-01-30T22:25:24.742Z,48.50
2019-01-30T22:27:53.390Z,41.63
2019-01-30T22:30:24.069Z,42.63
2019-01-30T22:32:52.575Z,43.07
2019-01-30T22:35:21.415Z,43.60
2019-01-30T22:37:50.104Z,40.67
2019-01-30T22:40:18.741Z,46.70
2019-01-30T22:42:47.395Z,62.10
2019-01-30T22:45:20.306Z,40.03
2019-01-30T22:47:49.222Z,42.20
2019-01-30T22:50:19.158Z,52.20
2019-01-30T22:52:47.845Z,55.07
2019-01-30T22:55:18.209Z,36.67
2019-01-30T22:57:46.980Z,36.93
2019-01-30T23:00:54.459Z,33.53
2019-01-30T23:03:31.812Z,36.07
2019-01-30T23:06:35.784Z,33.67
2019-01-30T23:09:38.020Z,32.63
2019-01-30T23:12:24.998Z,38.00
2019-01-30T23:15:02.785Z,33.83
2019-01-30T23:17:43.381Z,32.97
2019-01-30T23:20:15.027Z,33.10
2019-01-30T23:22:55.717Z,32.73
2019-01-30T23:25:36.385Z,41.90
2019-01-30T23:28:24.458Z,33.60
2019-01-30T23:31:11.389Z,48.30
2019-01-30T23:33:58.293Z,32.50
2019-01-30T23:36:36.011Z,34.33
2019-01-30T23:39:13.589Z,32.50
2019-01-30T23:41:48.098Z,34.23
2019-01-30T23:44:28.795Z,35.90
2019-01-30T23:47:06.093Z,32.00
2019-01-30T23:49:49.209Z,30.77
2019-01-30T23:52:37.343Z,32.10
2019-01-30T23:55:09.080Z,31.03
2019-01-30T23:57:58.876Z,38.67
